Farson, WY (82932)

7:34 AM MDT on October 25, 2014 (GMT -0600)
Farson WY 82932 | Change Station
CLOSE
Current Station
Personal Weather Station
Location: Farson, WY
Elevation: 6644 ft
Nearby Weather Stations

Elev 6644 ft 42.12 °N, 109.46 °W | Updated 17 minutes ago

Clear
Clear
25.4 °F
Feels Like 25 °F
N
0.0
Wind Variable Wind from North
Gusts 0.0 mph

Today
High -- | Low -- °F
--% Chance of Precip.
Yesterday
High -- | Low -- °F
Precip. -- in
7:42 AM 6:20 PM
Waxing Crescent, 3% visible
Pressure 30.12 in
Visibility 10.0 miles
Clouds Clear
Windchill 25 °F
Dew Point 19 °F
Humidity 75%
Rainfall 0.00 in
Snow Depth Not available.
UV 0 out of 12
Pollen 2.10 out of 12
Air Quality Not available.
Flu Activity Sporadic
METAR KRKS 251254Z AUTO 11005KT 10SM CLR 04/M03 A3025 RMK AO2 SLP199 T00441033 $

More Conditions Fewer Conditions

Pressure 30.12 in
Visibility 10.0 miles
Clouds Clear
Windchill 25 °F
Dew Point 19 °F
Humidity 75%
Rainfall 0.00 in
Snow Depth Not available.
UV 0 out of 12
Pollen 2.10 out of 12
Air Quality Not available.
Flu Activity Sporadic
METAR KRKS 251254Z AUTO 11005KT 10SM CLR 04/M03 A3025 RMK AO2 SLP199 T00441033 $

More Conditions Fewer Conditions

10-Day Weather Forecast

Almanac

Astronomy

Oct. 25, 2014 Rise Set
Actual Time 7:42 AM MDT 6:20 PM MDT
Civil Twilight 7:13 AM MDT 6:49 PM MDT
Nautical Twilight 6:40 AM MDT 7:22 PM MDT
Astronomical Twilight 6:08 AM MDT 7:54 PM MDT
Moon 9:25 AM MDT 7:44 PM MDT
Length of Visible Light 11h 35m
Length of Day
10h 38m
Tomorrow will be 2m 37s shorter.
Waxing Crescent, 3% of the Moon is Illuminated
Today
Waxing Crescent
Oct 30
First Quarter
Nov 6
Full
Nov 14
Last Quarter
Nov 22
New

Today's Extremes

State Highs State Lows

Community

WunderPhotos

Upload Photos

1,764,829 photos uploaded!

Nearby

Snow Depth

Station Depth Elevation
Big Sandy Opening 1 in 9080 ft
South Pass 0 in 9040 ft
Townsend Creek 0 in 8700 ft
Hams Fork 0 in 7840 ft
St. Lawrence Alt 2 in 8620 ft

Earthquake Activity

City Distance Mag. Time & Date
No recent earthquake activity has been reported nearby.
Minimum magnitude displayed is 2.5.

Coastal Water Temperatures

Place Temperature
No Stations Reporting

Nearby Weather Stations